sensor_id;sensor_type;location;lat;lon;timestamp;temperature;humidity
15700;DHT22;7950;42.744;23.174;2023-05-10T00:01:21;9.20;99.90
15700;DHT22;7950;42.744;23.174;2023-05-10T00:03:49;9.10;99.90
15700;DHT22;7950;42.744;23.174;2023-05-10T00:06:19;9.10;99.90
15700;DHT22;7950;42.744;23.174;2023-05-10T00:08:48;9.10;99.90
15700;DHT22;7950;42.744;23.174;2023-05-10T00:11:16;9.00;99.90
15700;DHT22;7950;42.744;23.174;2023-05-10T00:14:13;9.10;99.90
15700;DHT22;7950;42.744;23.174;2023-05-10T00:16:42;9.00;99.90
15700;DHT22;7950;42.744;23.174;2023-05-10T00:19:10;9.00;99.90
15700;DHT22;7950;42.744;23.174;2023-05-10T00:21:40;9.00;99.90
15700;DHT22;7950;42.744;23.174;2023-05-10T00:24:09;9.10;99.90
15700;DHT22;7950;42.744;23.174;2023-05-10T00:26:37;9.00;99.90
15700;DHT22;7950;42.744;23.174;2023-05-10T00:29:06;9.00;99.90
15700;DHT22;7950;42.744;23.174;2023-05-10T00:31:34;9.00;99.90
15700;DHT22;7950;42.744;23.174;2023-05-10T00:34:03;9.00;99.90
15700;DHT22;7950;42.744;23.174;2023-05-10T00:36:31;9.00;99.90
15700;DHT22;7950;42.744;23.174;2023-05-10T00:39:01;9.00;99.90
15700;DHT22;7950;42.744;23.174;2023-05-10T00:41:30;9.00;99.90
15700;DHT22;7950;42.744;23.174;2023-05-10T00:43:59;8.90;99.90
15700;DHT22;7950;42.744;23.174;2023-05-10T00:46:29;8.80;99.90
15700;DHT22;7950;42.744;23.174;2023-05-10T00:48:58;8.80;99.90
15700;DHT22;7950;42.744;23.174;2023-05-10T00:51:27;8.80;99.90
15700;DHT22;7950;42.744;23.174;2023-05-10T00:53:55;8.80;99.90
15700;DHT22;7950;42.744;23.174;2023-05-10T00:56:26;8.80;99.90
15700;DHT22;7950;42.744;23.174;2023-05-10T00:58:56;8.70;99.90
15700;DHT22;7950;42.744;23.174;2023-05-10T01:01:25;8.70;99.90
15700;DHT22;7950;42.744;23.174;2023-05-10T01:03:55;8.70;99.90
15700;DHT22;7950;42.744;23.174;2023-05-10T01:06:24;8.70;99.90
15700;DHT22;7950;42.744;23.174;2023-05-10T01:08:53;8.70;99.90
15700;DHT22;7950;42.744;23.174;2023-05-10T01:11:21;8.70;99.90
15700;DHT22;7950;42.744;23.174;2023-05-10T01:13:56;8.70;99.90
15700;DHT22;7950;42.744;23.174;2023-05-10T01:16:26;8.70;99.90
15700;DHT22;7950;42.744;23.174;2023-05-10T01:18:55;8.60;99.90
15700;DHT22;7950;42.744;23.174;2023-05-10T01:21:32;8.60;99.90
15700;DHT22;7950;42.744;23.174;2023-05-10T01:24:23;8.60;99.90
15700;DHT22;7950;42.744;23.174;2023-05-10T01:27:47;8.70;99.90
15700;DHT22;7950;42.744;23.174;2023-05-10T01:33:40;8.60;99.90
15700;DHT22;7950;42.744;23.174;2023-05-10T01:36:17;8.60;99.90
15700;DHT22;7950;42.744;23.174;2023-05-10T01:39:22;8.60;99.90
15700;DHT22;7950;42.744;23.174;2023-05-10T01:41:56;8.60;99.90
15700;DHT22;7950;42.744;23.174;2023-05-10T01:44:33;8.60;99.90
15700;DHT22;7950;42.744;23.174;2023-05-10T01:47:09;8.60;99.90
15700;DHT22;7950;42.744;23.174;2023-05-10T01:50:06;8.60;99.90
15700;DHT22;7950;42.744;23.174;2023-05-10T01:52:57;8.60;99.90
15700;DHT22;7950;42.744;23.174;2023-05-10T01:55:29;8.60;99.90
15700;DHT22;7950;42.744;23.174;2023-05-10T01:58:04;8.50;99.90
15700;DHT22;7950;42.744;23.174;2023-05-10T02:00:35;8.50;99.90
15700;DHT22;7950;42.744;23.174;2023-05-10T02:03:11;8.50;99.90
15700;DHT22;7950;42.744;23.174;2023-05-10T02:05:43;8.50;99.90
15700;DHT22;7950;42.744;23.174;2023-05-10T02:08:22;8.50;99.90
15700;DHT22;7950;42.744;23.174;2023-05-10T02:10:54;8.50;99.90
15700;DHT22;7950;42.744;23.174;2023-05-10T02:13:24;8.50;99.90
15700;DHT22;7950;42.744;23.174;2023-05-10T02:16:20;8.50;99.90
15700;DHT22;7950;42.744;23.174;2023-05-10T02:18:52;8.50;99.90
15700;DHT22;7950;42.744;23.174;2023-05-10T02:21:23;8.40;99.90
15700;DHT22;7950;42.744;23.174;2023-05-10T02:23:54;8.40;99.90
15700;DHT22;7950;42.744;23.174;2023-05-10T02:26:24;8.40;99.90
15700;DHT22;7950;42.744;23.174;2023-05-10T02:29:07;8.40;99.90
15700;DHT22;7950;42.744;23.174;2023-05-10T02:31:38;8.40;99.90
15700;DHT22;7950;42.744;23.174;2023-05-10T02:34:10;8.40;99.90
15700;DHT22;7950;42.744;23.174;2023-05-10T02:36:41;8.30;99.90
15700;DHT22;7950;42.744;23.174;2023-05-10T02:39:11;8.30;99.90
15700;DHT22;7950;42.744;23.174;2023-05-10T02:41:42;8.30;99.90
15700;DHT22;7950;42.744;23.174;2023-05-10T02:44:14;8.30;99.90
15700;DHT22;7950;42.744;23.174;2023-05-10T02:46:46;8.30;99.90
15700;DHT22;7950;42.744;23.174;2023-05-10T02:49:15;8.20;99.90
15700;DHT22;7950;42.744;23.174;2023-05-10T02:51:50;8.20;99.90
15700;DHT22;7950;42.744;23.174;2023-05-10T02:54:28;8.20;99.90
15700;DHT22;7950;42.744;23.174;2023-05-10T02:57:03;8.20;99.90
15700;DHT22;7950;42.744;23.174;2023-05-10T02:59:34;8.10;99.90
15700;DHT22;7950;42.744;23.174;2023-05-10T03:02:28;8.10;99.90
15700;DHT22;7950;42.744;23.174;2023-05-10T03:04:57;8.00;99.90
15700;DHT22;7950;42.744;23.174;2023-05-10T03:07:28;7.90;99.90
15700;DHT22;7950;42.744;23.174;2023-05-10T03:09:56;7.90;99.90
15700;DHT22;7950;42.744;23.174;2023-05-10T03:12:33;7.80;99.90
15700;DHT22;7950;42.744;23.174;2023-05-10T03:15:13;7.80;99.90
15700;DHT22;7950;42.744;23.174;2023-05-10T03:17:55;7.80;99.90
15700;DHT22;7950;42.744;23.174;2023-05-10T03:20:35;7.80;99.90
15700;DHT22;7950;42.744;23.174;2023-05-10T03:23:13;7.70;99.90
15700;DHT22;7950;42.744;23.174;2023-05-10T03:25:48;7.70;99.90
15700;DHT22;7950;42.744;23.174;2023-05-10T03:28:19;7.70;99.90
15700;DHT22;7950;42.744;23.174;2023-05-10T03:30:49;7.60;99.90
15700;DHT22;7950;42.744;23.174;2023-05-10T03:33:20;7.60;99.90
15700;DHT22;7950;42.744;23.174;2023-05-10T03:35:53;7.60;99.90
15700;DHT22;7950;42.744;23.174;2023-05-10T03:38:23;7.50;99.90
15700;DHT22;7950;42.744;23.174;2023-05-10T03:40:55;7.50;99.90
15700;DHT22;7950;42.744;23.174;2023-05-10T03:43:24;7.50;99.90
15700;DHT22;7950;42.744;23.174;2023-05-10T03:45:52;7.50;99.90
15700;DHT22;7950;42.744;23.174;2023-05-10T03:48:21;7.40;99.90
15700;DHT22;7950;42.744;23.174;2023-05-10T03:50:55;7.40;99.90
15700;DHT22;7950;42.744;23.174;2023-05-10T03:53:25;7.40;99.90
15700;DHT22;7950;42.744;23.174;2023-05-10T03:55:54;7.30;99.90
15700;DHT22;7950;42.744;23.174;2023-05-10T03:58:23;7.30;99.90
15700;DHT22;7950;42.744;23.174;2023-05-10T04:00:56;7.40;99.90
15700;DHT22;7950;42.744;23.174;2023-05-10T04:03:25;7.30;99.90
15700;DHT22;7950;42.744;23.174;2023-05-10T04:05:59;7.30;99.90
15700;DHT22;7950;42.744;23.174;2023-05-10T04:08:30;7.30;99.90
15700;DHT22;7950;42.744;23.174;2023-05-10T04:11:06;7.30;99.90
15700;DHT22;7950;42.744;23.174;2023-05-10T04:13:35;7.30;99.90
15700;DHT22;7950;42.744;23.174;2023-05-10T04:16:04;7.30;99.90
15700;DHT22;7950;42.744;23.174;2023-05-10T04:18:33;7.30;99.90
15700;DHT22;7950;42.744;23.174;2023-05-10T04:21:02;7.30;99.90
15700;DHT22;7950;42.744;23.174;2023-05-10T04:23:51;7.30;99.90
15700;DHT22;7950;42.744;23.174;2023-05-10T04:26:44;7.30;99.90
15700;DHT22;7950;42.744;23.174;2023-05-10T04:29:13;7.30;99.90
15700;DHT22;7950;42.744;23.174;2023-05-10T04:31:41;7.30;99.90
15700;DHT22;7950;42.744;23.174;2023-05-10T04:34:10;7.30;99.90
15700;DHT22;7950;42.744;23.174;2023-05-10T04:36:39;7.30;99.90
15700;DHT22;7950;42.744;23.174;2023-05-10T04:39:08;7.30;99.90
15700;DHT22;7950;42.744;23.174;2023-05-10T04:41:38;7.30;99.90
15700;DHT22;7950;42.744;23.174;2023-05-10T04:44:06;7.30;99.90
15700;DHT22;7950;42.744;23.174;2023-05-10T04:46:35;7.30;99.90
15700;DHT22;7950;42.744;23.174;2023-05-10T04:49:03;7.30;99.90
15700;DHT22;7950;42.744;23.174;2023-05-10T04:51:32;7.30;99.90
15700;DHT22;7950;42.744;23.174;2023-05-10T04:54:00;7.30;99.90
15700;DHT22;7950;42.744;23.174;2023-05-10T04:56:34;7.40;99.90
15700;DHT22;7950;42.744;23.174;2023-05-10T04:59:02;7.40;99.90
15700;DHT22;7950;42.744;23.174;2023-05-10T05:01:30;7.40;99.90
15700;DHT22;7950;42.744;23.174;2023-05-10T05:04:27;7.40;99.90
15700;DHT22;7950;42.744;23.174;2023-05-10T05:06:55;7.40;99.90
15700;DHT22;7950;42.744;23.174;2023-05-10T05:09:23;7.50;99.90
15700;DHT22;7950;42.744;23.174;2023-05-10T05:11:55;7.50;99.90
15700;DHT22;7950;42.744;23.174;2023-05-10T05:14:38;7.50;99.90
15700;DHT22;7950;42.744;23.174;2023-05-10T05:17:31;7.50;99.90
15700;DHT22;7950;42.744;23.174;2023-05-10T05:20:00;7.60;99.90
15700;DHT22;7950;42.744;23.174;2023-05-10T05:22:29;7.60;99.90
15700;DHT22;7950;42.744;23.174;2023-05-10T05:24:57;7.60;99.90
15700;DHT22;7950;42.744;23.174;2023-05-10T05:27:27;7.60;99.90
15700;DHT22;7950;42.744;23.174;2023-05-10T05:29:56;7.60;99.90
15700;DHT22;7950;42.744;23.174;2023-05-10T05:32:25;7.60;99.90
15700;DHT22;7950;42.744;23.174;2023-05-10T05:34:54;7.60;99.90
15700;DHT22;7950;42.744;23.174;2023-05-10T05:37:47;7.60;99.90
15700;DHT22;7950;42.744;23.174;2023-05-10T05:40:16;7.60;99.90
15700;DHT22;7950;42.744;23.174;2023-05-10T05:42:46;7.60;99.90
15700;DHT22;7950;42.744;23.174;2023-05-10T05:45:15;7.60;99.90
15700;DHT22;7950;42.744;23.174;2023-05-10T05:47:44;7.60;99.90
15700;DHT22;7950;42.744;23.174;2023-05-10T05:50:12;7.60;99.90
15700;DHT22;7950;42.744;23.174;2023-05-10T05:52:41;7.60;99.90
15700;DHT22;7950;42.744;23.174;2023-05-10T05:55:09;7.60;99.90
15700;DHT22;7950;42.744;23.174;2023-05-10T05:57:38;7.70;99.90
15700;DHT22;7950;42.744;23.174;2023-05-10T06:00:09;7.60;99.90
15700;DHT22;7950;42.744;23.174;2023-05-10T06:02:38;7.70;99.90
15700;DHT22;7950;42.744;23.174;2023-05-10T06:05:08;7.70;99.90
15700;DHT22;7950;42.744;23.174;2023-05-10T06:07:36;7.70;99.90
15700;DHT22;7950;42.744;23.174;2023-05-10T06:10:06;7.70;99.90
15700;DHT22;7950;42.744;23.174;2023-05-10T06:12:35;7.70;99.90
15700;DHT22;7950;42.744;23.174;2023-05-10T06:15:04;7.80;99.90
15700;DHT22;7950;42.744;23.174;2023-05-10T06:17:46;7.70;99.90
15700;DHT22;7950;42.744;23.174;2023-05-10T06:20:16;7.80;99.90
15700;DHT22;7950;42.744;23.174;2023-05-10T06:22:45;7.80;99.90
15700;DHT22;7950;42.744;23.174;2023-05-10T06:25:13;7.80;99.90
15700;DHT22;7950;42.744;23.174;2023-05-10T06:27:45;7.80;99.90
15700;DHT22;7950;42.744;23.174;2023-05-10T06:30:19;7.90;99.90
15700;DHT22;7950;42.744;23.174;2023-05-10T06:32:51;7.90;99.90
15700;DHT22;7950;42.744;23.174;2023-05-10T06:35:20;7.90;99.90
15700;DHT22;7950;42.744;23.174;2023-05-10T06:38:14;7.90;99.90
15700;DHT22;7950;42.744;23.174;2023-05-10T06:40:43;8.00;99.90
15700;DHT22;7950;42.744;23.174;2023-05-10T06:43:11;8.00;99.90
15700;DHT22;7950;42.744;23.174;2023-05-10T06:45:40;8.00;99.90
15700;DHT22;7950;42.744;23.174;2023-05-10T06:48:10;8.00;99.90
15700;DHT22;7950;42.744;23.174;2023-05-10T06:50:39;8.00;99.90
15700;DHT22;7950;42.744;23.174;2023-05-10T06:53:07;8.00;99.90
15700;DHT22;7950;42.744;23.174;2023-05-10T06:55:36;8.00;99.90
15700;DHT22;7950;42.744;23.174;2023-05-10T06:58:04;8.00;99.90
15700;DHT22;7950;42.744;23.174;2023-05-10T07:00:33;8.00;99.90
15700;DHT22;7950;42.744;23.174;2023-05-10T07:03:02;8.00;99.90
15700;DHT22;7950;42.744;23.174;2023-05-10T07:05:32;8.10;99.90
15700;DHT22;7950;42.744;23.174;2023-05-10T07:08:01;8.10;99.90
15700;DHT22;7950;42.744;23.174;2023-05-10T07:10:29;8.10;99.90
15700;DHT22;7950;42.744;23.174;2023-05-10T07:12:58;8.20;99.90
15700;DHT22;7950;42.744;23.174;2023-05-10T07:15:27;8.20;99.90
15700;DHT22;7950;42.744;23.174;2023-05-10T07:17:56;8.20;99.90
15700;DHT22;7950;42.744;23.174;2023-05-10T07:20:24;8.20;99.90
15700;DHT22;7950;42.744;23.174;2023-05-10T07:22:54;8.20;99.90
15700;DHT22;7950;42.744;23.174;2023-05-10T07:25:23;8.20;99.90
15700;DHT22;7950;42.744;23.174;2023-05-10T07:27:52;8.30;99.90
15700;DHT22;7950;42.744;23.174;2023-05-10T07:30:20;8.30;99.90
15700;DHT22;7950;42.744;23.174;2023-05-10T07:32:49;8.40;99.90
15700;DHT22;7950;42.744;23.174;2023-05-10T07:35:18;8.40;99.90
15700;DHT22;7950;42.744;23.174;2023-05-10T07:37:46;8.40;99.90
15700;DHT22;7950;42.744;23.174;2023-05-10T07:40:16;8.50;99.90
15700;DHT22;7950;42.744;23.174;2023-05-10T07:42:45;8.50;99.90
15700;DHT22;7950;42.744;23.174;2023-05-10T07:45:14;8.50;99.90
15700;DHT22;7950;42.744;23.174;2023-05-10T07:47:43;8.50;99.90
15700;DHT22;7950;42.744;23.174;2023-05-10T07:50:11;8.50;99.90
15700;DHT22;7950;42.744;23.174;2023-05-10T07:52:40;8.60;99.90
15700;DHT22;7950;42.744;23.174;2023-05-10T07:55:10;8.70;99.90
15700;DHT22;7950;42.744;23.174;2023-05-10T07:57:40;8.70;99.90
15700;DHT22;7950;42.744;23.174;2023-05-10T08:00:11;8.80;99.90
15700;DHT22;7950;42.744;23.174;2023-05-10T08:02:41;8.80;99.90
15700;DHT22;7950;42.744;23.174;2023-05-10T08:05:10;8.70;99.90
15700;DHT22;7950;42.744;23.174;2023-05-10T08:07:38;8.70;99.90
15700;DHT22;7950;42.744;23.174;2023-05-10T08:10:08;8.80;99.90
15700;DHT22;7950;42.744;23.174;2023-05-10T08:12:40;8.80;99.90
15700;DHT22;7950;42.744;23.174;2023-05-10T08:15:09;8.80;99.90
15700;DHT22;7950;42.744;23.174;2023-05-10T08:17:38;8.80;99.90
15700;DHT22;7950;42.744;23.174;2023-05-10T08:20:08;8.80;99.90
15700;DHT22;7950;42.744;23.174;2023-05-10T08:22:36;8.90;99.90
15700;DHT22;7950;42.744;23.174;2023-05-10T08:25:10;8.90;99.90
15700;DHT22;7950;42.744;23.174;2023-05-10T08:27:40;9.00;99.90
15700;DHT22;7950;42.744;23.174;2023-05-10T08:30:09;9.00;99.90
15700;DHT22;7950;42.744;23.174;2023-05-10T08:32:38;9.10;99.90
15700;DHT22;7950;42.744;23.174;2023-05-10T08:35:07;9.10;99.90
15700;DHT22;7950;42.744;23.174;2023-05-10T08:37:36;9.20;99.90
15700;DHT22;7950;42.744;23.174;2023-05-10T08:40:05;9.20;99.90
15700;DHT22;7950;42.744;23.174;2023-05-10T08:42:42;9.30;99.90
15700;DHT22;7950;42.744;23.174;2023-05-10T08:45:15;9.30;99.90
15700;DHT22;7950;42.744;23.174;2023-05-10T08:47:46;9.30;99.90
15700;DHT22;7950;42.744;23.174;2023-05-10T08:50:16;9.30;99.90
15700;DHT22;7950;42.744;23.174;2023-05-10T08:52:49;9.30;99.90
15700;DHT22;7950;42.744;23.174;2023-05-10T08:55:23;9.30;99.90
15700;DHT22;7950;42.744;23.174;2023-05-10T08:57:55;9.40;99.90
15700;DHT22;7950;42.744;23.174;2023-05-10T09:00:24;9.50;99.90
15700;DHT22;7950;42.744;23.174;2023-05-10T09:02:53;9.40;99.90
15700;DHT22;7950;42.744;23.174;2023-05-10T09:05:22;9.30;99.90
15700;DHT22;7950;42.744;23.174;2023-05-10T09:07:51;9.30;99.90
15700;DHT22;7950;42.744;23.174;2023-05-10T09:10:20;9.30;99.90
15700;DHT22;7950;42.744;23.174;2023-05-10T09:12:49;9.30;99.90
15700;DHT22;7950;42.744;23.174;2023-05-10T09:15:20;9.30;99.90
15700;DHT22;7950;42.744;23.174;2023-05-10T09:17:49;9.30;99.90
15700;DHT22;7950;42.744;23.174;2023-05-10T09:20:19;9.30;99.90
15700;DHT22;7950;42.744;23.174;2023-05-10T09:22:48;9.30;99.90
15700;DHT22;7950;42.744;23.174;2023-05-10T09:25:42;9.40;99.90
15700;DHT22;7950;42.744;23.174;2023-05-10T09:31:46;9.40;99.90
15700;DHT22;7950;42.744;23.174;2023-05-10T09:34:18;9.40;99.90
15700;DHT22;7950;42.744;23.174;2023-05-10T09:36:53;9.40;99.90
15700;DHT22;7950;42.744;23.174;2023-05-10T09:39:30;9.30;99.90
15700;DHT22;7950;42.744;23.174;2023-05-10T09:42:01;9.40;99.90
15700;DHT22;7950;42.744;23.174;2023-05-10T09:44:32;9.40;99.90
15700;DHT22;7950;42.744;23.174;2023-05-10T09:47:03;9.40;99.90
15700;DHT22;7950;42.744;23.174;2023-05-10T09:49:31;9.60;99.90
15700;DHT22;7950;42.744;23.174;2023-05-10T09:52:02;9.60;99.90
15700;DHT22;7950;42.744;23.174;2023-05-10T09:54:32;9.70;99.90
15700;DHT22;7950;42.744;23.174;2023-05-10T09:57:02;9.70;99.90
15700;DHT22;7950;42.744;23.174;2023-05-10T09:59:33;9.80;99.90
15700;DHT22;7950;42.744;23.174;2023-05-10T10:02:04;9.80;99.90
15700;DHT22;7950;42.744;23.174;2023-05-10T10:04:39;9.80;99.90
15700;DHT22;7950;42.744;23.174;2023-05-10T10:07:08;9.80;99.90
15700;DHT22;7950;42.744;23.174;2023-05-10T10:09:42;9.90;99.90
15700;DHT22;7950;42.744;23.174;2023-05-10T10:12:10;10.10;99.90
15700;DHT22;7950;42.744;23.174;2023-05-10T10:14:39;10.10;99.90
15700;DHT22;7950;42.744;23.174;2023-05-10T10:17:09;10.10;99.90
15700;DHT22;7950;42.744;23.174;2023-05-10T10:19:38;10.10;99.90
15700;DHT22;7950;42.744;23.174;2023-05-10T10:22:07;10.10;99.90
15700;DHT22;7950;42.744;23.174;2023-05-10T10:24:38;10.10;99.90
15700;DHT22;7950;42.744;23.174;2023-05-10T10:27:15;10.20;99.90
15700;DHT22;7950;42.744;23.174;2023-05-10T10:30:00;10.30;99.90
15700;DHT22;7950;42.744;23.174;2023-05-10T10:33:39;10.20;99.90
15700;DHT22;7950;42.744;23.174;2023-05-10T10:36:16;10.10;99.90
15700;DHT22;7950;42.744;23.174;2023-05-10T10:39:01;10.10;99.90
15700;DHT22;7950;42.744;23.174;2023-05-10T10:41:32;10.10;99.90
15700;DHT22;7950;42.744;23.174;2023-05-10T10:44:30;10.10;99.90
15700;DHT22;7950;42.744;23.174;2023-05-10T10:47:05;10.10;99.90
15700;DHT22;7950;42.744;23.174;2023-05-10T10:49:44;10.10;99.90
15700;DHT22;7950;42.744;23.174;2023-05-10T10:52:26;10.20;99.90
15700;DHT22;7950;42.744;23.174;2023-05-10T10:54:59;10.30;99.90
15700;DHT22;7950;42.744;23.174;2023-05-10T10:57:32;10.30;99.90
15700;DHT22;7950;42.744;23.174;2023-05-10T11:00:25;10.30;99.90
15700;DHT22;7950;42.744;23.174;2023-05-10T11:02:59;10.30;99.90
15700;DHT22;7950;42.744;23.174;2023-05-10T11:05:39;10.40;99.90
15700;DHT22;7950;42.744;23.174;2023-05-10T11:08:15;10.50;99.90
15700;DHT22;7950;42.744;23.174;2023-05-10T11:11:02;10.60;99.90
15700;DHT22;7950;42.744;23.174;2023-05-10T11:13:37;10.70;99.90
15700;DHT22;7950;42.744;23.174;2023-05-10T11:19:27;11.00;99.90
15700;DHT22;7950;42.744;23.174;2023-05-10T11:22:27;11.10;99.90
15700;DHT22;7950;42.744;23.174;2023-05-10T11:24:56;11.20;99.90
15700;DHT22;7950;42.744;23.174;2023-05-10T11:27:26;11.20;99.90
15700;DHT22;7950;42.744;23.174;2023-05-10T11:29:54;11.20;99.90
15700;DHT22;7950;42.744;23.174;2023-05-10T11:32:23;11.10;99.90
15700;DHT22;7950;42.744;23.174;2023-05-10T11:34:51;11.00;99.90
15700;DHT22;7950;42.744;23.174;2023-05-10T11:37:20;10.90;99.90
15700;DHT22;7950;42.744;23.174;2023-05-10T11:39:50;11.00;99.90
15700;DHT22;7950;42.744;23.174;2023-05-10T11:42:18;10.90;99.90
15700;DHT22;7950;42.744;23.174;2023-05-10T11:44:47;10.90;99.90
15700;DHT22;7950;42.744;23.174;2023-05-10T11:47:16;10.90;99.90
15700;DHT22;7950;42.744;23.174;2023-05-10T11:49:45;10.90;99.90
15700;DHT22;7950;42.744;23.174;2023-05-10T11:52:14;10.90;99.90
15700;DHT22;7950;42.744;23.174;2023-05-10T11:54:45;10.80;99.90
15700;DHT22;7950;42.744;23.174;2023-05-10T11:57:21;10.80;99.90
15700;DHT22;7950;42.744;23.174;2023-05-10T11:59:55;10.80;99.90
15700;DHT22;7950;42.744;23.174;2023-05-10T12:02:24;10.80;99.90
15700;DHT22;7950;42.744;23.174;2023-05-10T12:05:09;10.80;99.90
15700;DHT22;7950;42.744;23.174;2023-05-10T12:11:07;11.00;99.90
15700;DHT22;7950;42.744;23.174;2023-05-10T12:13:38;11.10;99.90
15700;DHT22;7950;42.744;23.174;2023-05-10T12:16:16;11.10;99.90
15700;DHT22;7950;42.744;23.174;2023-05-10T12:18:48;11.00;99.90
15700;DHT22;7950;42.744;23.174;2023-05-10T12:21:19;11.00;99.90
15700;DHT22;7950;42.744;23.174;2023-05-10T12:23:51;11.00;99.90
15700;DHT22;7950;42.744;23.174;2023-05-10T12:26:47;10.90;99.90
15700;DHT22;7950;42.744;23.174;2023-05-10T12:29:17;11.00;99.90
15700;DHT22;7950;42.744;23.174;2023-05-10T12:31:53;11.00;99.90
15700;DHT22;7950;42.744;23.174;2023-05-10T12:34:48;11.00;99.90
15700;DHT22;7950;42.744;23.174;2023-05-10T12:37:16;11.00;99.90
15700;DHT22;7950;42.744;23.174;2023-05-10T12:39:45;11.00;99.90
15700;DHT22;7950;42.744;23.174;2023-05-10T12:42:15;11.00;99.90
15700;DHT22;7950;42.744;23.174;2023-05-10T12:44:44;10.90;99.90
15700;DHT22;7950;42.744;23.174;2023-05-10T12:47:13;10.80;99.90
15700;DHT22;7950;42.744;23.174;2023-05-10T12:49:41;10.80;99.90
15700;DHT22;7950;42.744;23.174;2023-05-10T12:52:10;10.90;99.90
15700;DHT22;7950;42.744;23.174;2023-05-10T12:54:38;10.80;99.90
15700;DHT22;7950;42.744;23.174;2023-05-10T12:57:07;10.80;99.90
15700;DHT22;7950;42.744;23.174;2023-05-10T12:59:37;10.80;99.90
15700;DHT22;7950;42.744;23.174;2023-05-10T13:02:06;10.80;99.90
15700;DHT22;7950;42.744;23.174;2023-05-10T13:04:34;10.80;99.90
15700;DHT22;7950;42.744;23.174;2023-05-10T13:07:06;10.80;99.90
15700;DHT22;7950;42.744;23.174;2023-05-10T13:09:35;10.80;99.90
15700;DHT22;7950;42.744;23.174;2023-05-10T13:12:04;10.80;99.90
15700;DHT22;7950;42.744;23.174;2023-05-10T13:14:37;10.80;99.90
15700;DHT22;7950;42.744;23.174;2023-05-10T13:17:07;10.80;99.90
15700;DHT22;7950;42.744;23.174;2023-05-10T13:19:36;10.90;99.90
15700;DHT22;7950;42.744;23.174;2023-05-10T13:22:04;10.80;99.90
15700;DHT22;7950;42.744;23.174;2023-05-10T13:24:33;10.90;99.90
15700;DHT22;7950;42.744;23.174;2023-05-10T13:27:01;10.90;99.90
15700;DHT22;7950;42.744;23.174;2023-05-10T13:29:30;11.00;99.90
15700;DHT22;7950;42.744;23.174;2023-05-10T13:32:00;11.00;99.90
15700;DHT22;7950;42.744;23.174;2023-05-10T13:34:28;11.00;99.90
15700;DHT22;7950;42.744;23.174;2023-05-10T13:36:57;10.90;99.90
15700;DHT22;7950;42.744;23.174;2023-05-10T13:39:26;10.90;99.90
15700;DHT22;7950;42.744;23.174;2023-05-10T13:41:56;10.90;99.90
15700;DHT22;7950;42.744;23.174;2023-05-10T13:44:24;10.90;99.90
15700;DHT22;7950;42.744;23.174;2023-05-10T13:46:53;10.90;99.90
15700;DHT22;7950;42.744;23.174;2023-05-10T13:49:23;10.90;99.90
15700;DHT22;7950;42.744;23.174;2023-05-10T13:51:52;10.90;99.90
15700;DHT22;7950;42.744;23.174;2023-05-10T13:54:20;10.80;99.90
15700;DHT22;7950;42.744;23.174;2023-05-10T13:56:49;10.80;99.90
15700;DHT22;7950;42.744;23.174;2023-05-10T13:59:18;10.80;99.90
15700;DHT22;7950;42.744;23.174;2023-05-10T14:01:46;10.80;99.90
15700;DHT22;7950;42.744;23.174;2023-05-10T14:04:15;10.80;99.90
15700;DHT22;7950;42.744;23.174;2023-05-10T14:06:45;10.80;99.90
15700;DHT22;7950;42.744;23.174;2023-05-10T14:09:13;10.80;99.90
15700;DHT22;7950;42.744;23.174;2023-05-10T14:11:42;10.80;99.90
15700;DHT22;7950;42.744;23.174;2023-05-10T14:14:12;10.70;99.90
15700;DHT22;7950;42.744;23.174;2023-05-10T14:16:42;10.70;99.90
15700;DHT22;7950;42.744;23.174;2023-05-10T14:19:12;10.70;99.90
15700;DHT22;7950;42.744;23.174;2023-05-10T14:21:40;10.70;99.90
15700;DHT22;7950;42.744;23.174;2023-05-10T14:24:11;10.70;99.90
15700;DHT22;7950;42.744;23.174;2023-05-10T14:26:39;10.80;99.90
15700;DHT22;7950;42.744;23.174;2023-05-10T14:29:08;10.80;99.90
15700;DHT22;7950;42.744;23.174;2023-05-10T14:31:38;10.80;99.90
15700;DHT22;7950;42.744;23.174;2023-05-10T14:34:08;10.80;99.90
15700;DHT22;7950;42.744;23.174;2023-05-10T14:36:36;10.80;99.90
15700;DHT22;7950;42.744;23.174;2023-05-10T14:39:04;10.80;99.90
15700;DHT22;7950;42.744;23.174;2023-05-10T14:41:34;10.90;99.90
15700;DHT22;7950;42.744;23.174;2023-05-10T14:44:25;10.90;99.90
15700;DHT22;7950;42.744;23.174;2023-05-10T14:46:54;10.90;99.90
15700;DHT22;7950;42.744;23.174;2023-05-10T14:49:23;10.90;99.90
15700;DHT22;7950;42.744;23.174;2023-05-10T14:51:52;11.00;99.90
15700;DHT22;7950;42.744;23.174;2023-05-10T14:54:21;11.00;99.90
15700;DHT22;7950;42.744;23.174;2023-05-10T14:56:51;11.00;99.90
15700;DHT22;7950;42.744;23.174;2023-05-10T14:59:45;11.00;99.90
15700;DHT22;7950;42.744;23.174;2023-05-10T15:02:14;11.00;99.90
15700;DHT22;7950;42.744;23.174;2023-05-10T15:04:43;10.90;99.90
15700;DHT22;7950;42.744;23.174;2023-05-10T15:07:12;11.00;99.90
15700;DHT22;7950;42.744;23.174;2023-05-10T15:09:43;11.00;99.90
15700;DHT22;7950;42.744;23.174;2023-05-10T15:12:13;11.00;99.90
15700;DHT22;7950;42.744;23.174;2023-05-10T15:14:41;11.00;99.90
15700;DHT22;7950;42.744;23.174;2023-05-10T15:17:09;10.90;99.90
15700;DHT22;7950;42.744;23.174;2023-05-10T15:19:38;10.90;99.90
15700;DHT22;7950;42.744;23.174;2023-05-10T15:22:07;10.80;99.90
15700;DHT22;7950;42.744;23.174;2023-05-10T15:24:35;10.80;99.90
15700;DHT22;7950;42.744;23.174;2023-05-10T15:27:04;10.80;99.90
15700;DHT22;7950;42.744;23.174;2023-05-10T15:29:34;10.80;99.90
15700;DHT22;7950;42.744;23.174;2023-05-10T15:32:02;10.80;99.90
15700;DHT22;7950;42.744;23.174;2023-05-10T15:34:31;10.70;99.90
15700;DHT22;7950;42.744;23.174;2023-05-10T15:37:02;10.70;99.90
15700;DHT22;7950;42.744;23.174;2023-05-10T15:39:31;10.70;99.90
15700;DHT22;7950;42.744;23.174;2023-05-10T15:41:59;10.60;99.90
15700;DHT22;7950;42.744;23.174;2023-05-10T15:48:21;10.60;99.90
15700;DHT22;7950;42.744;23.174;2023-05-10T15:50:49;10.60;99.90
15700;DHT22;7950;42.744;23.174;2023-05-10T15:53:18;10.60;99.90
15700;DHT22;7950;42.744;23.174;2023-05-10T15:55:46;10.60;99.90
15700;DHT22;7950;42.744;23.174;2023-05-10T15:58:15;10.60;99.90
15700;DHT22;7950;42.744;23.174;2023-05-10T16:00:43;10.60;99.90
15700;DHT22;7950;42.744;23.174;2023-05-10T16:03:12;10.50;99.90
15700;DHT22;7950;42.744;23.174;2023-05-10T16:05:42;10.60;99.90
15700;DHT22;7950;42.744;23.174;2023-05-10T16:08:10;10.60;99.90
15700;DHT22;7950;42.744;23.174;2023-05-10T16:10:39;10.60;99.90
15700;DHT22;7950;42.744;23.174;2023-05-10T16:13:08;10.60;99.90
15700;DHT22;7950;42.744;23.174;2023-05-10T16:15:36;10.60;99.90
15700;DHT22;7950;42.744;23.174;2023-05-10T16:18:05;10.60;99.90
15700;DHT22;7950;42.744;23.174;2023-05-10T16:20:34;10.60;99.90
15700;DHT22;7950;42.744;23.174;2023-05-10T16:23:04;10.60;99.90
15700;DHT22;7950;42.744;23.174;2023-05-10T16:25:34;10.60;99.90
15700;DHT22;7950;42.744;23.174;2023-05-10T16:28:03;10.60;99.90